Time;durP1;ratioP1;P1;durP2;ratioP2;P2;SDS_P1;SDS_P2;PMS_P1;PMS_P2;Temp;Humidity;BMP_temperature;BMP_pressure;BME280_temperature;BME280_humidity;BME280_pressure;Samples;Min_cycle;Max_cycle;Signal;HPM_P1;HPM_P2
2022/09/29 00:00:28;;;;;;;8.79;8.24;;;;;;;16.15;84.35;99866.25;455588;116;922676;-78
2022/09/29 00:01:32;;;;;;;9.29;8.41;;;;;;;16.13;84.26;99869.27;455579;116;922956;-78
2022/09/29 00:02:34;;;;;;;8.78;8.11;;;;;;;16.11;84.20;99871.44;455531;116;922574;-78
2022/09/29 00:03:37;;;;;;;9.63;8.76;;;;;;;16.11;84.24;99870.61;455611;116;923116;-77
2022/09/29 00:04:40;;;;;;;8.92;8.31;;;;;;;16.10;84.20;99872.53;455611;116;923473;-78
2022/09/29 00:05:49;;;;;;;8.24;7.42;;;;;;;16.09;84.24;99870.07;455587;116;923041;-78
2022/09/29 00:06:52;;;;;;;9.23;8.64;;;;;;;16.09;84.21;99873.65;454836;116;923018;-79
2022/09/29 00:07:55;;;;;;;9.79;9.05;;;;;;;16.09;84.26;99872.82;455623;116;923059;-78
2022/09/29 00:08:57;;;;;;;8.53;7.83;;;;;;;16.08;84.26;99866.48;455612;116;923061;-77
2022/09/29 00:10:00;;;;;;;8.29;7.76;;;;;;;16.08;84.22;99871.98;455597;116;922562;-77
2022/09/29 00:11:09;;;;;;;9.28;8.57;;;;;;;16.08;84.17;99863.73;455596;116;923012;-77
2022/09/29 00:12:12;;;;;;;8.34;7.84;;;;;;;16.06;84.13;99865.92;455392;116;922547;-78
2022/09/29 00:13:15;;;;;;;8.97;8.34;;;;;;;16.06;84.10;99863.17;455599;116;922565;-77
2022/09/29 00:14:18;;;;;;;8.28;7.77;;;;;;;16.04;84.27;99875.55;455526;116;922608;-77
2022/09/29 00:15:22;;;;;;;9.06;8.35;;;;;;;16.04;84.27;99875.55;455507;116;930742;-78
2022/09/29 00:16:25;;;;;;;8.88;8.26;;;;;;;16.03;84.12;99871.14;457308;116;922552;-77
2022/09/29 00:17:28;;;;;;;9.07;8.44;;;;;;;16.02;84.21;99870.31;457320;115;922928;-78
2022/09/29 00:18:32;;;;;;;8.19;7.67;;;;;;;16.01;84.04;99868.65;457382;115;922561;-78
2022/09/29 00:19:35;;;;;;;8.18;7.59;;;;;;;16.00;84.03;99875.23;447326;118;922847;-78
2022/09/29 00:20:38;;;;;;;8.36;7.67;;;;;;;16.00;84.04;99877.98;447406;118;922553;-78
2022/09/29 00:21:41;;;;;;;8.46;7.74;;;;;;;15.99;83.92;99887.32;438415;120;923218;-77
2022/09/29 00:22:48;;;;;;;8.88;8.18;;;;;;;15.97;83.86;99878.53;438779;118;930608;-77
2022/09/29 00:23:51;;;;;;;8.51;7.90;;;;;;;15.96;83.78;99885.13;447221;118;922588;-77
2022/09/29 00:24:54;;;;;;;8.20;7.60;;;;;;;15.94;83.65;99892.80;447366;118;923782;-78
2022/09/29 00:26:15;;;;;;;8.44;7.84;;;;;;;15.92;83.63;99886.76;447435;118;923104;-77
2022/09/29 00:27:18;;;;;;;8.29;7.72;;;;;;;15.91;83.67;99887.02;447302;118;922551;-77
2022/09/29 00:28:21;;;;;;;8.46;7.82;;;;;;;15.88;83.69;99893.86;447474;118;923084;-77
2022/09/29 00:29:25;;;;;;;8.67;8.16;;;;;;;15.88;83.70;99895.81;447436;118;922579;-77
2022/09/29 00:30:28;;;;;;;8.85;8.20;;;;;;;15.86;83.69;99890.57;456783;116;922493;-78
2022/09/29 00:31:32;;;;;;;7.53;7.09;;;;;;;15.84;83.79;99896.33;456172;116;923161;-77
2022/09/29 00:32:35;;;;;;;9.84;8.55;;;;;;;15.84;83.82;99896.33;454647;116;922751;-78
2022/09/29 00:33:39;;;;;;;9.62;8.98;;;;;;;15.85;83.76;99897.16;455120;115;922579;-79
2022/09/29 00:34:42;;;;;;;9.66;8.94;;;;;;;15.84;83.76;99895.49;458210;115;922548;-77
2022/09/29 00:35:49;;;;;;;9.49;8.87;;;;;;;15.83;83.77;99891.08;458320;115;922596;-77
2022/09/29 00:36:52;;;;;;;8.73;8.13;;;;;;;15.83;83.70;99896.58;457383;115;923016;-77
2022/09/29 00:37:55;;;;;;;9.56;8.88;;;;;;;15.82;83.63;99897.70;458334;115;922499;-78
2022/09/29 00:38:58;;;;;;;10.00;9.25;;;;;;;15.82;83.60;99894.95;458314;115;922858;-77
2022/09/29 00:40:03;;;;;;;10.09;9.08;;;;;;;15.81;83.59;99896.04;458183;115;922820;-77
2022/09/29 00:41:09;;;;;;;9.32;8.72;;;;;;;15.80;83.51;99894.37;458115;115;923641;-80
2022/09/29 00:42:16;;;;;;;10.18;9.40;;;;;;;15.79;83.58;99892.72;457904;115;922502;-79
2022/09/29 00:43:26;;;;;;;9.26;8.70;;;;;;;15.80;83.62;99891.63;458115;115;922546;-79
2022/09/29 00:44:55;;;;;;;9.30;8.36;;;;;;;15.79;83.58;99898.22;455297;115;922482;-80
2022/09/29 00:45:58;;;;;;;10.12;9.46;;;;;;;15.79;83.56;99898.22;458059;115;922531;-79
2022/09/29 00:47:03;;;;;;;9.73;9.01;;;;;;;15.77;83.41;99901.22;458356;115;923042;-79
2022/09/29 00:48:09;;;;;;;10.44;9.78;;;;;;;15.75;83.43;99910.84;458184;115;922456;-79
2022/09/29 00:49:34;;;;;;;10.46;9.76;;;;;;;15.74;83.41;99910.02;458039;115;922636;-79
2022/09/29 00:50:44;;;;;;;10.22;9.52;;;;;;;15.72;83.29;99906.69;458135;115;922614;-79
2022/09/29 00:51:50;;;;;;;11.29;10.29;;;;;;;15.69;83.28;99909.15;458211;115;923243;-78
2022/09/29 00:52:57;;;;;;;11.13;10.27;;;;;;;15.67;83.14;99912.16;444695;118;922940;-78
2022/09/29 00:54:01;;;;;;;9.74;9.04;;;;;;;15.65;83.20;99911.61;449305;118;923424;-78
2022/09/29 00:55:17;;;;;;;11.39;9.84;;;;;;;15.63;83.06;99904.70;449332;117;922425;-78
2022/09/29 00:56:20;;;;;;;9.97;9.22;;;;;;;15.62;82.98;99905.80;449202;117;922539;-78
2022/09/29 00:57:27;;;;;;;9.84;9.11;;;;;;;15.59;82.93;99912.66;449511;117;922585;-78
2022/09/29 00:58:36;;;;;;;9.53;8.92;;;;;;;15.59;82.94;99909.08;449246;118;922915;-78
2022/09/29 00:59:45;;;;;;;10.35;9.59;;;;;;;15.58;82.99;99910.17;449235;117;922815;-77
2022/09/29 01:00:47;;;;;;;9.72;9.05;;;;;;;15.57;82.96;99916.75;449146;117;922787;-78
2022/09/29 01:01:51;;;;;;;9.62;8.94;;;;;;;15.55;82.84;99913.45;449423;117;923205;-78
2022/09/29 01:03:01;;;;;;;10.21;9.34;;;;;;;15.54;82.80;99922.78;449294;117;930544;-78
2022/09/29 01:04:07;;;;;;;9.57;8.99;;;;;;;15.53;82.80;99916.46;449168;117;923397;-79
2022/09/29 01:05:14;;;;;;;10.06;9.34;;;;;;;15.52;82.75;99916.72;449193;118;922920;-78
2022/09/29 01:06:27;;;;;;;9.53;8.82;;;;;;;15.50;82.75;99916.94;449293;118;922961;-80
2022/09/29 01:07:31;;;;;;;10.36;9.47;;;;;;;15.49;82.67;99917.22;449263;118;922535;-78
2022/09/29 01:08:58;;;;;;;10.44;9.57;;;;;;;15.47;82.74;99914.73;449393;117;922557;-79
2022/09/29 01:10:01;;;;;;;9.56;8.99;;;;;;;15.47;82.69;99916.65;449300;118;923322;-78
2022/09/29 01:11:05;;;;;;;9.39;8.81;;;;;;;15.45;82.70;99912.23;449503;117;922667;-80
2022/09/29 01:12:08;;;;;;;8.66;7.97;;;;;;;15.44;82.83;99909.75;449437;118;923044;-79
2022/09/29 01:13:11;;;;;;;10.01;9.06;;;;;;;15.45;82.92;99914.98;449373;117;924877;-79
2022/09/29 01:14:15;;;;;;;9.64;9.02;;;;;;;15.46;82.98;99924.06;449381;117;922490;-79
2022/09/29 01:15:21;;;;;;;9.85;9.24;;;;;;;15.47;82.95;99925.72;451706;117;922664;-78
2022/09/29 01:16:24;;;;;;;11.35;10.58;;;;;;;15.47;82.93;99927.64;448542;118;922815;-78
2022/09/29 01:17:27;;;;;;;9.42;8.83;;;;;;;15.45;82.87;99922.39;448741;118;922587;-79
2022/09/29 01:18:31;;;;;;;10.41;9.69;;;;;;;15.45;82.87;99936.13;448762;118;922573;-79
2022/09/29 01:19:59;;;;;;;9.29;8.62;;;;;;;15.43;82.77;99928.17;448609;118;922479;-78
2022/09/29 01:21:25;;;;;;;8.91;8.34;;;;;;;15.43;82.66;99927.34;448154;118;922621;-77
2022/09/29 01:22:41;;;;;;;9.44;8.13;;;;;;;15.40;82.60;99931.43;428783;123;923296;-77
2022/09/29 01:23:59;;;;;;;8.93;8.27;;;;;;;15.38;82.76;99932.80;447147;118;922573;-79
2022/09/29 01:25:37;;;;;;;8.89;8.08;;;;;;;15.37;82.87;99934.72;448513;118;922577;-79
2022/09/29 01:26:59;;;;;;;8.68;8.08;;;;;;;15.38;82.98;99941.05;447190;118;922654;-79
2022/09/29 01:28:29;;;;;;;10.54;9.13;;;;;;;15.37;83.01;99942.95;448495;118;922487;-77
2022/09/29 01:29:39;;;;;;;9.05;7.81;;;;;;;15.37;83.01;99942.95;447960;118;923069;-78
2022/09/29 01:30:45;;;;;;;8.46;7.83;;;;;;;15.37;82.97;99937.46;450781;117;923627;-80
2022/09/29 01:32:01;;;;;;;9.92;8.99;;;;;;;15.39;83.09;99949.00;451627;116;923059;-78
2022/09/29 01:33:23;;;;;;;9.02;8.33;;;;;;;15.40;83.07;99945.16;454927;115;923019;-78
2022/09/29 01:34:45;;;;;;;8.69;7.87;;;;;;;15.41;83.11;99944.08;456904;115;922473;-78
2022/09/29 01:36:12;;;;;;;8.11;7.46;;;;;;;15.43;83.12;99949.33;457140;116;922577;-79
2022/09/29 01:37:35;;;;;;;9.13;8.26;;;;;;;15.42;82.91;99955.91;457121;116;922903;-79
2022/09/29 01:39:18;;;;;;;8.99;8.16;;;;;;;15.42;82.86;99961.40;457120;116;922870;-78
2022/09/29 01:40:28;;;;;;;8.21;7.63;;;;;;;15.40;82.85;99958.91;456653;115;922647;-79
2022/09/29 01:41:53;;;;;;;7.83;7.19;;;;;;;15.39;82.82;99964.64;456592;115;923060;-79
2022/09/29 01:43:08;;;;;;;7.84;7.34;;;;;;;15.36;82.82;99963.27;456884;115;922629;-78
2022/09/29 01:44:21;;;;;;;8.57;7.89;;;;;;;15.35;82.87;99972.59;456311;115;923166;-78
2022/09/29 01:45:30;;;;;;;7.67;7.17;;;;;;;15.35;82.89;99967.10;457144;115;923195;-78
2022/09/29 01:46:45;;;;;;;12.57;7.54;;;;;;;15.36;82.90;99977.00;457171;116;922592;-80
2022/09/29 01:47:55;;;;;;;7.86;7.28;;;;;;;15.37;82.90;99980.58;456499;115;922960;-79
2022/09/29 01:49:01;;;;;;;7.97;7.36;;;;;;;15.37;82.88;99975.92;457155;116;922734;-77
2022/09/29 01:50:11;;;;;;;7.47;6.91;;;;;;;15.37;82.90;99977.84;457178;116;922442;-79
2022/09/29 01:51:18;;;;;;;8.83;8.08;;;;;;;15.38;82.92;99984.99;456500;115;922624;-76
2022/09/29 01:52:24;;;;;;;7.73;7.00;;;;;;;15.38;83.07;99985.80;453644;116;922437;-78
2022/09/29 01:53:36;;;;;;;7.56;7.09;;;;;;;15.38;83.05;99980.30;449317;117;922578;-78
2022/09/29 01:54:49;;;;;;;7.67;7.04;;;;;;;15.40;83.09;99982.80;449322;118;923229;-78
2022/09/29 01:55:55;;;;;;;8.17;7.39;;;;;;;15.44;83.22;99978.42;449223;117;922562;-78
2022/09/29 01:57:02;;;;;;;7.54;7.00;;;;;;;15.49;83.36;99985.91;449335;118;922966;-78
2022/09/29 01:58:08;;;;;;;8.06;7.39;;;;;;;15.52;83.42;99983.48;449117;117;922589;-78
2022/09/29 01:59:24;;;;;;;6.88;6.47;;;;;;;15.56;83.52;99994.77;449281;118;923090;-79
2022/09/29 02:00:31;;;;;;;6.84;6.36;;;;;;;15.60;83.68;99995.93;449256;118;922969;-79
2022/09/29 02:01:38;;;;;;;7.07;6.57;;;;;;;15.64;83.59;100000.64;449271;118;923028;-80
2022/09/29 02:02:53;;;;;;;6.94;6.48;;;;;;;15.67;83.53;99999.27;449286;118;923027;-80
2022/09/29 02:04:00;;;;;;;6.76;6.36;;;;;;;15.69;83.33;100000.67;449265;118;922529;-78
2022/09/29 02:05:06;;;;;;;6.75;6.17;;;;;;;15.70;83.17;100001.51;449244;117;922578;-80
2022/09/29 02:06:13;;;;;;;6.53;6.03;;;;;;;15.70;83.14;100002.34;449142;117;922768;-79
2022/09/29 02:07:20;;;;;;;6.53;6.13;;;;;;;15.70;82.85;100001.51;449248;118;922529;-79
2022/09/29 02:08:32;;;;;;;6.71;6.14;;;;;;;15.70;82.82;100002.34;448767;117;923171;-79
2022/09/29 02:09:39;;;;;;;6.48;5.94;;;;;;;15.72;82.80;100002.05;449312;118;922609;-77
2022/09/29 02:10:51;;;;;;;6.16;5.75;;;;;;;15.73;82.87;100000.97;448725;117;922766;-78
2022/09/29 02:11:57;;;;;;;6.96;6.43;;;;;;;15.74;82.92;100002.63;455297;116;922529;-77
2022/09/29 02:13:03;;;;;;;7.07;6.58;;;;;;;15.77;82.94;100004.84;457091;116;922942;-78
2022/09/29 02:14:13;;;;;;;6.35;5.95;;;;;;;15.78;82.96;100012.84;457130;116;922548;-78
2022/09/29 02:15:19;;;;;;;6.90;6.18;;;;;;;15.80;82.82;100013.41;457054;116;922519;-77
2022/09/29 02:16:26;;;;;;;7.09;6.64;;;;;;;15.79;82.57;100009.00;447875;118;922819;-77
2022/09/29 02:17:32;;;;;;;6.63;6.13;;;;;;;15.80;82.44;100015.33;448112;118;922970;-77
2022/09/29 02:18:45;;;;;;;6.89;6.24;;;;;;;15.80;82.53;100007.91;448096;118;923301;-78
2022/09/29 02:19:50;;;;;;;7.76;7.26;;;;;;;15.82;82.61;100013.16;447115;118;923156;-78
2022/09/29 02:20:53;;;;;;;8.09;7.44;;;;;;;15.84;82.69;100019.20;448130;118;922522;-77
2022/09/29 02:21:57;;;;;;;8.16;7.57;;;;;;;15.84;82.45;100017.28;448379;118;922950;-77
2022/09/29 02:23:00;;;;;;;8.13;7.59;;;;;;;15.85;82.36;100013.45;438070;120;922884;-78
2022/09/29 02:24:03;;;;;;;8.33;7.58;;;;;;;15.86;82.36;100017.03;438566;118;930601;-79
2022/09/29 02:25:09;;;;;;;8.69;7.82;;;;;;;15.86;82.49;100017.03;448337;118;922616;-79
2022/09/29 02:26:13;;;;;;;7.18;6.78;;;;;;;15.88;82.58;100025.82;448163;118;922690;-78
2022/09/29 02:27:16;;;;;;;7.08;6.68;;;;;;;15.89;82.55;100021.98;448280;118;922465;-78
2022/09/29 02:28:20;;;;;;;7.94;7.32;;;;;;;15.91;82.44;100029.98;448307;118;922758;-78
2022/09/29 02:29:23;;;;;;;7.91;7.21;;;;;;;15.91;82.34;100028.06;448314;118;923117;-77
2022/09/29 02:30:26;;;;;;;7.69;7.19;;;;;;;15.92;82.33;100031.64;453578;117;922934;-77
2022/09/29 02:31:30;;;;;;;7.56;6.98;;;;;;;15.92;82.37;100021.48;453725;117;922658;-78
2022/09/29 02:32:35;;;;;;;8.19;7.59;;;;;;;15.94;82.48;100034.94;453076;117;922905;-78
2022/09/29 02:33:38;;;;;;;7.85;7.37;;;;;;;15.95;82.51;100029.19;453455;115;922930;-78
2022/09/29 02:34:45;;;;;;;8.14;7.28;;;;;;;15.96;82.46;100030.84;458253;115;930506;-78
2022/09/29 02:36:11;;;;;;;7.95;7.40;;;;;;;15.97;82.51;100032.52;458128;115;922481;-78
2022/09/29 02:37:33;;;;;;;8.12;7.36;;;;;;;15.98;82.34;100039.67;458162;115;923091;-78
2022/09/29 02:38:43;;;;;;;8.30;7.77;;;;;;;15.98;82.25;100044.34;457631;115;923132;-77
2022/09/29 02:39:55;;;;;;;8.26;7.70;;;;;;;15.97;82.33;100039.93;458208;115;922882;-78
2022/09/29 02:41:13;;;;;;;8.62;8.01;;;;;;;15.98;82.39;100042.42;456605;116;922968;-77
2022/09/29 02:42:43;;;;;;;7.64;7.19;;;;;;;15.99;82.48;100046.01;457397;115;922564;-78
2022/09/29 02:43:55;;;;;;;8.04;7.38;;;;;;;15.99;82.47;100044.05;456845;115;922527;-77
2022/09/29 02:45:16;;;;;;;8.31;7.78;;;;;;;15.99;82.44;100044.05;458170;115;922454;-78
2022/09/29 02:46:43;;;;;;;7.91;7.40;;;;;;;16.00;82.52;100047.64;458149;115;922446;-77
2022/09/29 02:47:54;;;;;;;8.15;7.55;;;;;;;16.00;82.40;100051.22;457894;115;922481;-78
2022/09/29 02:49:08;;;;;;;;;;;;;;;16.00;82.48;100056.72;455460;115;922323;-79
2022/09/29 02:50:14;;;;;;;8.73;7.68;;;;;;;16.00;82.48;100059.47;458092;115;922521;-78
2022/09/29 02:51:20;;;;;;;7.60;6.96;;;;;;;15.99;82.52;100060.56;458101;115;923044;-78
2022/09/29 02:52:27;;;;;;;8.28;7.79;;;;;;;15.98;82.56;100067.17;456593;115;923036;-77
2022/09/29 02:54:00;;;;;;;8.56;7.87;;;;;;;15.97;82.46;100067.42;429091;123;922709;-77
2022/09/29 02:55:19;;;;;;;8.12;7.51;;;;;;;15.97;82.45;100056.43;454695;116;923003;-78
2022/09/29 02:56:34;;;;;;;8.04;7.54;;;;;;;15.94;82.42;100065.19;455442;116;922631;-77
2022/09/29 02:57:43;;;;;;;7.89;7.44;;;;;;;15.93;82.38;100066.30;455439;116;923130;-78
2022/09/29 02:58:50;;;;;;;7.83;7.09;;;;;;;15.93;82.46;100069.05;454844;116;922819;-77
2022/09/29 03:00:10;;;;;;;8.24;7.48;;;;;;;15.92;82.51;100065.47;455355;116;923029;-78
2022/09/29 03:01:10;;;;;;;8.11;7.61;;;;;;;15.93;82.55;100066.30;454981;116;923042;-80
2022/09/29 03:02:15;;;;;;;7.92;7.41;;;;;;;15.94;82.47;100063.27;455585;116;922933;-81
2022/09/29 03:03:18;;;;;;;8.18;7.27;;;;;;;15.94;82.45;100057.77;455399;116;922932;-78
2022/09/29 03:04:23;;;;;;;7.77;7.24;;;;;;;15.95;82.46;100059.44;455609;116;922648;-77
2022/09/29 03:05:26;;;;;;;7.27;6.80;;;;;;;15.97;82.61;100065.51;455352;116;922429;-80
2022/09/29 03:06:29;;;;;;;7.55;7.05;;;;;;;15.97;82.60;100068.26;455583;116;922944;-79
2022/09/29 03:07:35;;;;;;;7.87;7.39;;;;;;;16.00;82.58;100064.14;453842;116;922881;-79
2022/09/29 03:08:38;;;;;;;7.56;7.05;;;;;;;16.01;82.46;100069.38;447598;118;923059;-79
2022/09/29 03:09:40;;;;;;;7.84;7.24;;;;;;;16.02;82.33;100067.47;447850;118;922865;-79
2022/09/29 03:10:43;;;;;;;7.94;7.44;;;;;;;16.02;82.27;100062.80;447871;118;922929;-79
2022/09/29 03:11:46;;;;;;;7.87;7.29;;;;;;;16.02;82.11;100064.72;438862;120;922946;-80
2022/09/29 03:12:49;;;;;;;7.96;7.36;;;;;;;16.00;81.98;100064.14;439151;118;923117;-79
2022/09/29 03:13:52;;;;;;;7.96;7.35;;;;;;;16.00;82.02;100059.47;445605;118;922899;-79
2022/09/29 03:14:55;;;;;;;7.98;7.48;;;;;;;16.01;82.14;100065.80;444905;119;922507;-79
2022/09/29 03:15:58;;;;;;;7.92;7.18;;;;;;;16.01;82.13;100069.38;451020;116;922861;-79
2022/09/29 03:17:01;;;;;;;7.76;7.06;;;;;;;16.02;82.14;100068.30;455578;116;922530;-78
2022/09/29 03:18:04;;;;;;;7.71;7.14;;;;;;;16.03;82.18;100063.63;455539;116;922910;-75
2022/09/29 03:19:09;;;;;;;6.89;6.39;;;;;;;16.04;82.21;100065.30;455083;116;922686;-79
2022/09/29 03:20:12;;;;;;;7.42;6.85;;;;;;;16.04;82.24;100066.12;455587;116;922509;-77
2022/09/29 03:21:15;;;;;;;7.75;7.04;;;;;;;16.05;82.32;100073.26;455599;116;922441;-77
2022/09/29 03:22:18;;;;;;;7.26;6.83;;;;;;;16.06;82.27;100072.17;455543;116;922941;-77
2022/09/29 03:23:21;;;;;;;7.28;6.76;;;;;;;16.08;82.25;100077.42;455495;116;922803;-76
2022/09/29 03:24:24;;;;;;;8.14;7.39;;;;;;;16.08;82.19;100075.50;455562;116;922474;-77
2022/09/29 03:25:27;;;;;;;7.69;7.09;;;;;;;16.08;82.14;100074.67;455563;116;922615;-77
2022/09/29 03:26:30;;;;;;;6.78;6.24;;;;;;;16.08;82.15;100075.50;455535;116;922557;-79
2022/09/29 03:27:35;;;;;;;7.26;6.64;;;;;;;16.10;82.20;100087.05;455553;116;922879;-76
2022/09/29 03:28:38;;;;;;;7.10;6.57;;;;;;;16.11;82.22;100087.87;455328;116;922976;-76
2022/09/29 03:29:41;;;;;;;7.37;6.88;;;;;;;16.11;82.16;100088.71;454331;116;922910;-76
2022/09/29 03:30:46;;;;;;;7.04;6.54;;;;;;;16.11;82.07;100087.87;447816;118;922491;-77
2022/09/29 03:31:49;;;;;;;7.28;6.71;;;;;;;16.11;82.09;100099.71;453723;116;922564;-76
2022/09/29 03:32:52;;;;;;;7.34;6.87;;;;;;;16.11;82.12;100091.45;455563;116;923100;-76
2022/09/29 03:33:55;;;;;;;6.98;6.49;;;;;;;16.11;82.17;100090.63;452898;116;923096;-77
2022/09/29 03:34:58;;;;;;;7.14;6.64;;;;;;;16.12;82.26;100093.12;447811;116;922987;-77
2022/09/29 03:36:02;;;;;;;8.03;6.72;;;;;;;16.14;82.37;100099.20;447836;118;922557;-77
2022/09/29 03:37:05;;;;;;;7.31;6.75;;;;;;;16.16;82.48;100102.50;447780;118;923125;-77
2022/09/29 03:38:08;;;;;;;7.08;6.56;;;;;;;16.18;82.57;100111.33;447846;118;922435;-77
2022/09/29 03:39:11;;;;;;;7.71;7.09;;;;;;;16.20;82.55;100106.41;447764;118;923123;-78
2022/09/29 03:40:15;;;;;;;7.51;6.90;;;;;;;16.21;82.54;100109.95;447738;116;922534;-78
2022/09/29 03:41:19;;;;;;;7.34;6.85;;;;;;;16.22;82.25;100114.38;447701;118;930734;-78
2022/09/29 03:42:23;;;;;;;7.53;7.10;;;;;;;16.21;82.19;100119.05;447834;118;923069;-77
2022/09/29 03:43:26;;;;;;;7.59;7.07;;;;;;;16.22;82.09;100119.88;447756;118;923212;-77
2022/09/29 03:44:29;;;;;;;7.44;6.92;;;;;;;16.22;82.06;100122.63;447853;118;922505;-78
2022/09/29 03:45:32;;;;;;;7.83;7.23;;;;;;;16.21;81.98;100123.71;447837;116;922498;-77
2022/09/29 03:46:35;;;;;;;8.23;7.34;;;;;;;16.20;81.88;100120.16;447869;118;922499;-78
2022/09/29 03:47:38;;;;;;;7.48;6.96;;;;;;;16.18;81.77;100129.75;447826;118;922846;-77
2022/09/29 03:48:41;;;;;;;7.65;7.14;;;;;;;16.18;81.72;100132.50;447832;118;923323;-77
2022/09/29 03:49:44;;;;;;;8.01;7.41;;;;;;;16.16;81.58;100126.42;447810;118;922836;-78
2022/09/29 03:50:49;;;;;;;7.27;6.77;;;;;;;16.14;81.45;100128.63;447830;116;922647;-77
2022/09/29 03:51:52;;;;;;;8.21;7.48;;;;;;;16.12;81.37;100125.30;447717;118;922826;-77
2022/09/29 03:52:55;;;;;;;7.58;7.10;;;;;;;16.10;81.38;100128.30;450089;118;930578;-76
2022/09/29 03:53:58;;;;;;;7.55;7.10;;;;;;;16.10;81.52;100128.30;450112;118;922884;-77
2022/09/29 03:55:01;;;;;;;7.24;6.83;;;;;;;16.11;81.62;100131.88;450095;118;922524;-77
2022/09/29 03:56:04;;;;;;;7.95;7.39;;;;;;;16.11;81.64;100132.72;450104;118;922759;-77
2022/09/29 03:57:07;;;;;;;7.47;7.00;;;;;;;16.12;81.55;100130.80;450122;118;922541;-77
2022/09/29 03:58:10;;;;;;;8.28;7.67;;;;;;;16.13;81.52;100132.47;450111;118;923086;-79
2022/09/29 03:59:14;;;;;;;7.56;7.05;;;;;;;16.11;81.53;100124.47;450021;118;922582;-78
2022/09/29 04:00:18;;;;;;;7.73;7.13;;;;;;;16.12;81.53;100131.63;449860;118;922791;-78
2022/09/29 04:01:21;;;;;;;8.14;7.53;;;;;;;16.14;81.55;100132.21;450070;118;923050;-77
2022/09/29 04:02:24;;;;;;;8.18;7.55;;;;;;;16.15;81.51;100133.04;449976;118;922485;-78
2022/09/29 04:03:28;;;;;;;7.45;6.96;;;;;;;16.15;81.53;100127.55;450082;118;922984;-77
2022/09/29 04:04:31;;;;;;;7.93;7.34;;;;;;;16.14;81.54;100134.12;455276;116;922541;-78
2022/09/29 04:05:37;;;;;;;7.60;6.97;;;;;;;16.14;81.47;100131.38;455524;116;923292;-78
2022/09/29 04:06:38;;;;;;;7.77;7.17;;;;;;;16.13;81.45;100130.55;455383;116;922967;-77
2022/09/29 04:07:41;;;;;;;7.92;7.32;;;;;;;16.13;81.42;100136.05;455557;116;923015;-77
2022/09/29 04:08:44;;;;;;;7.39;6.85;;;;;;;16.13;81.43;100132.47;455517;116;923288;-78
2022/09/29 04:09:47;;;;;;;7.66;7.04;;;;;;;16.13;81.50;100136.05;455500;116;922525;-77
2022/09/29 04:10:50;;;;;;;7.66;7.16;;;;;;;16.14;81.54;100140.46;455518;116;922683;-77
2022/09/29 04:11:53;;;;;;;7.95;7.17;;;;;;;16.15;81.60;100139.34;455536;116;922981;-78
2022/09/29 04:12:56;;;;;;;7.68;6.94;;;;;;;16.17;81.58;100150.09;455533;116;922533;-77
2022/09/29 04:13:58;;;;;;;7.33;6.84;;;;;;;16.18;81.55;100143.51;456696;115;923240;-77
2022/09/29 04:15:03;;;;;;;7.94;7.33;;;;;;;16.18;81.57;100144.34;458233;115;922559;-78
2022/09/29 04:16:06;;;;;;;12.55;7.21;;;;;;;16.18;81.48;100151.76;452431;115;930995;-77
2022/09/29 04:17:09;;;;;;;9.30;7.49;;;;;;;16.17;81.38;100145.42;450508;117;923135;-77
2022/09/29 04:18:12;;;;;;;7.89;7.08;;;;;;;16.17;81.31;100145.42;450492;117;923128;-77
2022/09/29 04:19:16;;;;;;;8.23;7.59;;;;;;;16.17;81.37;100145.42;450503;117;922893;-77
2022/09/29 04:20:19;;;;;;;7.94;7.17;;;;;;;16.17;81.25;100150.09;450436;116;922870;-77
2022/09/29 04:21:23;;;;;;;8.45;7.84;;;;;;;16.17;81.31;100150.92;450492;117;923593;-77
2022/09/29 04:22:26;;;;;;;7.91;7.33;;;;;;;16.17;81.31;100145.42;450543;117;923004;-78
2022/09/29 04:23:29;;;;;;;7.78;7.16;;;;;;;16.17;81.38;100145.42;450525;117;923007;-77
2022/09/29 04:24:32;;;;;;;8.05;7.45;;;;;;;16.20;81.56;100149.59;450384;117;922879;-78
2022/09/29 04:25:35;;;;;;;7.91;7.18;;;;;;;16.21;81.53;100148.47;450378;116;930569;-78
2022/09/29 04:26:38;;;;;;;8.25;7.65;;;;;;;16.23;81.60;100149.05;450508;117;922522;-79
2022/09/29 04:27:41;;;;;;;7.69;7.18;;;;;;;16.24;81.59;100147.96;450406;117;922673;-78
2022/09/29 04:28:44;;;;;;;7.01;6.61;;;;;;;16.25;81.64;100146.88;450418;117;923171;-78
2022/09/29 04:29:47;;;;;;;7.67;7.08;;;;;;;16.27;81.71;100148.25;451822;116;923532;-78
2022/09/29 04:30:51;;;;;;;7.94;7.31;;;;;;;16.27;81.62;100151.00;455565;116;922626;-78
2022/09/29 04:31:55;;;;;;;7.78;7.29;;;;;;;16.30;81.61;100157.09;453684;116;922563;-78
2022/09/29 04:32:58;;;;;;;9.79;7.76;;;;;;;16.31;81.62;100156.83;453285;117;922527;-78
2022/09/29 04:34:01;;;;;;;7.09;6.61;;;;;;;16.32;81.55;100158.47;455647;115;923377;-80
2022/09/29 04:35:05;;;;;;;7.97;7.35;;;;;;;16.32;81.48;100161.22;458814;115;923541;-77
2022/09/29 04:36:08;;;;;;;7.72;7.10;;;;;;;16.33;81.51;100160.13;458812;115;922870;-77
2022/09/29 04:37:11;;;;;;;7.43;6.94;;;;;;;16.32;81.50;100152.97;458835;115;922873;-78
2022/09/29 04:38:14;;;;;;;7.55;6.94;;;;;;;16.33;81.42;100160.13;458899;115;922975;-77
2022/09/29 04:39:17;;;;;;;8.37;7.66;;;;;;;16.34;81.43;100158.21;458810;115;923065;-77
2022/09/29 04:40:20;;;;;;;7.34;6.79;;;;;;;16.34;81.44;100160.96;458789;115;923239;-77
2022/09/29 04:41:23;;;;;;;7.89;7.26;;;;;;;16.34;81.34;100158.21;458820;115;922478;-77
2022/09/29 04:42:27;;;;;;;7.58;6.97;;;;;;;16.34;81.24;100161.80;458841;115;923012;-77
2022/09/29 04:43:29;;;;;;;7.67;6.85;;;;;;;16.36;81.16;100167.05;458873;115;922676;-77
2022/09/29 04:44:32;;;;;;;7.66;7.22;;;;;;;16.37;81.18;100161.28;458863;115;923278;-77
2022/09/29 04:45:36;;;;;;;7.83;7.22;;;;;;;16.38;81.22;100170.34;458858;115;922409;-77
2022/09/29 04:46:39;;;;;;;8.53;7.96;;;;;;;16.39;81.31;100164.58;458889;115;922908;-77
2022/09/29 04:47:42;;;;;;;7.62;7.13;;;;;;;16.42;81.27;100168.75;458865;115;923071;-78
2022/09/29 04:48:45;;;;;;;7.48;6.96;;;;;;;16.43;81.29;100164.91;458851;115;922592;-78
2022/09/29 04:49:48;;;;;;;9.31;8.48;;;;;;;16.45;81.34;100168.20;458822;115;922436;-77
2022/09/29 04:50:53;;;;;;;8.03;7.47;;;;;;;16.47;81.53;100177.04;458830;115;922948;-77
2022/09/29 04:51:56;;;;;;;7.99;7.25;;;;;;;16.50;81.67;100171.83;458165;115;922835;-77
2022/09/29 04:52:59;;;;;;;7.99;7.54;;;;;;;16.54;81.76;100172.15;450533;117;922527;-77
2022/09/29 04:54:02;;;;;;;8.14;7.36;;;;;;;16.58;81.83;100176.02;450471;117;922533;-77
2022/09/29 04:55:10;;;;;;;7.86;7.24;;;;;;;16.61;81.81;100172.77;450459;115;923016;-77
2022/09/29 04:56:11;;;;;;;8.28;7.74;;;;;;;16.64;81.85;100173.08;450249;117;922661;-77
2022/09/29 04:57:14;;;;;;;8.36;7.44;;;;;;;16.67;81.78;100177.22;450520;117;922888;-77
2022/09/29 04:58:17;;;;;;;7.87;7.33;;;;;;;16.68;81.70;100174.20;450544;117;922520;-77
2022/09/29 04:59:20;;;;;;;8.02;7.52;;;;;;;16.70;81.65;100175.87;444134;119;923275;-77
2022/09/29 05:00:23;;;;;;;7.99;7.42;;;;;;;16.71;81.66;100181.09;448675;115;922693;-77
2022/09/29 05:01:27;;;;;;;8.71;7.89;;;;;;;16.72;81.71;100180.00;458347;115;922519;-76
2022/09/29 05:02:30;;;;;;;8.34;7.66;;;;;;;16.76;81.67;100172.86;458290;115;923336;-76
2022/09/29 05:03:32;;;;;;;8.34;7.83;;;;;;;16.79;81.74;100185.28;458361;115;922516;-77
2022/09/29 05:04:35;;;;;;;8.21;7.54;;;;;;;16.81;81.59;100183.94;458319;115;923370;-75
2022/09/29 05:05:39;;;;;;;8.17;7.63;;;;;;;16.83;81.51;100189.16;458324;115;922491;-77
2022/09/29 05:06:41;;;;;;;8.13;7.53;;;;;;;16.83;81.52;100187.23;458311;115;922561;-77
2022/09/29 05:07:44;;;;;;;8.28;7.67;;;;;;;16.85;81.48;100192.48;458302;115;923031;-76